Marinicki — 9HWU9 — position and weather

sailwx.info

Track history (hours):
 
Tides and Currents Weather Stations Pressure Air Temp Water Temp Dewpoint Dewpoint Depression Visibility Wind Speed Wind Dir Waves Ship Positions

Marinicki

Last reported at 2014-Jul-05 16:13 UTC. Time now 2014-Aug-01 12:01 UTC.
Position N 33°12' W 011°04'.
Warning: this ship's position is 26 days out of date.

Length 218 m; draft 8.8 m.

Type: Ship. MMSI: 249650000.

Date/timePositionNaut miles runAvg speedWind from/ knotsBaromVisibWave heightAir tempDewpointWater temp
2014-Jul-05 16:13N 33°12' W 011°04'16211.9
2014-Jul-05 02:33N 34°44' W 008°23'1712.4
2014-Jul-05 01:11N 34°54' W 008°06'3512.3
2014-Jul-04 22:21N 35°14' W 007°31'1012.2
2014-Jul-04 21:33N 35°19' W 007°21'1212.3
2014-Jul-04 20:33N 35°26' W 007°09'1212.3
2014-Jul-04 19:33N 35°33' W 006°56'1212.3
2014-Jul-04 18:33N 35°40' W 006°44'1312.2
2014-Jul-04 17:27N 35°48' W 006°30'1211.9
2014-Jul-04 16:26N 35°55' W 006°18'2812.4
2014-Jul-04 14:09N 35°57' W 005°43'15 9.3
2014-Jul-04 12:33N 36°01' W 005°25'329 7.4
2014-Jul-02 16:11N 36°52' E 001°19'711.2
2014-Jul-02 15:33N 36°54' E 001°27'1110.9
2014-Jul-02 14:33N 36°56' E 001°41'1110.5
2014-Jul-02 13:33N 36°59' E 001°54'4410.8
2014-Jul-02 09:29N 37°09' E 002°47'1111.6
2014-Jul-02 08:33N 37°11' E 003°00'2311.4
2014-Jul-02 06:32N 37°14' E 003°29'1211.5
2014-Jul-02 05:31N 37°16' E 003°44'1212.5
2014-Jul-02 04:33N 37°18' E 003°59'1111.0
2014-Jul-02 03:33N 37°19' E 004°12'1312.6
2014-Jul-02 02:33N 37°21' E 004°28'1110.8
2014-Jul-02 01:33N 37°23' E 004°41'1211.6
2014-Jul-02 00:33N 37°24' E 004°56'1211.6
2014-Jul-01 23:33N 37°26' E 005°10'1211.8
2014-Jul-01 22:33N 37°28' E 005°25'1211.7
2014-Jul-01 21:33N 37°29' E 005°39'1312.2
2014-Jul-01 20:29N 37°31' E 005°56'1212.0
2014-Jul-01 19:31N 37°33' E 006°10'1512.5
2014-Jul-01 18:18N 37°35' E 006°29'911.9
2014-Jul-01 17:31N 37°36' E 006°41'1212.0
2014-Jul-01 16:29N 37°38' E 006°56'1212.0
2014-Jul-01 15:31N 37°40' E 007°11'1511.4
2014-Jul-01 14:11N 37°42' E 007°30'811.8
2014-Jul-01 13:31N 37°43' E 007°40'12711.3
2014-Jul-01 02:17N 37°38' E 010°20'810.5
2014-Jul-01 01:31N 37°36' E 010°29'1010.7
2014-Jul-01 00:33N 37°34' E 010°42'1111.0
2014-Jun-30 23:33N 37°31' E 010°56'1110.9
2014-Jun-30 22:33N 37°28' E 011°09'1110.7
2014-Jun-30 21:33N 37°22' E 011°20'2210.9
2014-Jun-30 19:33N 37°12' E 011°44'1311.1
2014-Jun-30 18:22N 37°06' E 011°59'3211.0
2014-Jun-30 15:28N 36°56' E 012°37'1010.6
2014-Jun-30 14:31N 36°53' E 012°49'1010.9
2014-Jun-30 13:33N 36°50' E 013°01'1111.1
2014-Jun-30 12:33N 36°47' E 013°15'1111.1
2014-Jun-30 11:33N 36°44' E 013°28'1111.2
2014-Jun-30 10:33N 36°40' E 013°41'1111.2
2014-Jun-30 09:33N 36°37' E 013°54'1111.1
2014-Jun-30 08:32N 36°34' E 014°08'1111.2
2014-Jun-30 07:33N 36°31' E 014°21'1111.2
2014-Jun-30 06:33N 36°29' E 014°35'1211.4
2014-Jun-30 05:30N 36°26' E 014°49'  
Track history (hours):
 
Tides and Currents Weather Stations Pressure Air Temp Water Temp Dewpoint Dewpoint Depression Visibility Wind Speed Wind Dir Waves Ship Positions

Marinicki

Last reported at 2014-Jul-05 16:13 UTC. Time now 2014-Aug-01 12:01 UTC.
Position N 33°12' W 011°04'.
Warning: this ship's position is 26 days out of date.

Length 218 m; draft 8.8 m.

Type: Ship. MMSI: 249650000.

Date/timePositionNaut miles runAvg speedWind from/ knotsBaromVisibWave heightAir tempDewpointWater temp
2014-Jul-05 16:13N 33°12' W 011°04'16211.9
2014-Jul-05 02:33N 34°44' W 008°23'1712.4
2014-Jul-05 01:11N 34°54' W 008°06'3512.3
2014-Jul-04 22:21N 35°14' W 007°31'1012.2
2014-Jul-04 21:33N 35°19' W 007°21'1212.3
2014-Jul-04 20:33N 35°26' W 007°09'1212.3
2014-Jul-04 19:33N 35°33' W 006°56'1212.3
2014-Jul-04 18:33N 35°40' W 006°44'1312.2
2014-Jul-04 17:27N 35°48' W 006°30'1211.9
2014-Jul-04 16:26N 35°55' W 006°18'2812.4
2014-Jul-04 14:09N 35°57' W 005°43'15 9.3
2014-Jul-04 12:33N 36°01' W 005°25'329 7.4
2014-Jul-02 16:11N 36°52' E 001°19'711.2
2014-Jul-02 15:33N 36°54' E 001°27'1110.9
2014-Jul-02 14:33N 36°56' E 001°41'1110.5
2014-Jul-02 13:33N 36°59' E 001°54'4410.8
2014-Jul-02 09:29N 37°09' E 002°47'1111.6
2014-Jul-02 08:33N 37°11' E 003°00'2311.4
2014-Jul-02 06:32N 37°14' E 003°29'1211.5
2014-Jul-02 05:31N 37°16' E 003°44'1212.5
2014-Jul-02 04:33N 37°18' E 003°59'1111.0
2014-Jul-02 03:33N 37°19' E 004°12'1312.6
2014-Jul-02 02:33N 37°21' E 004°28'1110.8
2014-Jul-02 01:33N 37°23' E 004°41'1211.6
2014-Jul-02 00:33N 37°24' E 004°56'1211.6
2014-Jul-01 23:33N 37°26' E 005°10'1211.8
2014-Jul-01 22:33N 37°28' E 005°25'1211.7
2014-Jul-01 21:33N 37°29' E 005°39'1312.2
2014-Jul-01 20:29N 37°31' E 005°56'1212.0
2014-Jul-01 19:31N 37°33' E 006°10'1512.5
2014-Jul-01 18:18N 37°35' E 006°29'911.9
2014-Jul-01 17:31N 37°36' E 006°41'1212.0
2014-Jul-01 16:29N 37°38' E 006°56'1212.0
2014-Jul-01 15:31N 37°40' E 007°11'1511.4
2014-Jul-01 14:11N 37°42' E 007°30'811.8
2014-Jul-01 13:31N 37°43' E 007°40'12711.3
2014-Jul-01 02:17N 37°38' E 010°20'810.5
2014-Jul-01 01:31N 37°36' E 010°29'1010.7
2014-Jul-01 00:33N 37°34' E 010°42'1111.0
2014-Jun-30 23:33N 37°31' E 010°56'1110.9
2014-Jun-30 22:33N 37°28' E 011°09'1110.7
2014-Jun-30 21:33N 37°22' E 011°20'2210.9
2014-Jun-30 19:33N 37°12' E 011°44'1311.1
2014-Jun-30 18:22N 37°06' E 011°59'3211.0
2014-Jun-30 15:28N 36°56' E 012°37'1010.6
2014-Jun-30 14:31N 36°53' E 012°49'1010.9
2014-Jun-30 13:33N 36°50' E 013°01'1111.1
2014-Jun-30 12:33N 36°47' E 013°15'1111.1
2014-Jun-30 11:33N 36°44' E 013°28'1111.2
2014-Jun-30 10:33N 36°40' E 013°41'1111.2
2014-Jun-30 09:33N 36°37' E 013°54'1111.1
2014-Jun-30 08:32N 36°34' E 014°08'1111.2
2014-Jun-30 07:33N 36°31' E 014°21'1111.2
2014-Jun-30 06:33N 36°29' E 014°35'1211.4
2014-Jun-30 05:30N 36°26' E 014°49'  

Dump ship's entire track history